Time;durP1;ratioP1;P1;durP2;ratioP2;P2;SDS_P1;SDS_P2;PMS_P1;PMS_P2;Temp;Humidity;BMP_temperature;BMP_pressure;BME280_temperature;BME280_humidity;BME280_pressure;Samples;Min_cycle;Max_cycle;Signal;HPM_P1;HPM_P2
2022/03/21 00:01:00;;;;;;;4.43;1.42;;;6.40;99.90;;;;;;5044482;28;20048;-77
2022/03/21 00:03:30;;;;;;;3.58;1.23;;;6.40;99.90;;;;;;5026950;28;20039;-77
2022/03/21 00:05:58;;;;;;;2.10;1.23;;;6.40;99.90;;;;;;5027296;28;20040;-77
2022/03/21 00:08:24;;;;;;;2.50;0.90;;;6.40;99.90;;;;;;5043127;28;20063;-77
2022/03/21 00:10:51;;;;;;;1.52;0.95;;;6.40;99.90;;;;;;5059767;28;20068;-77
2022/03/21 00:13:16;;;;;;;2.90;1.38;;;6.40;99.90;;;;;;5044751;28;20402;-77
2022/03/21 00:15:47;;;;;;;1.92;1.05;;;6.50;99.90;;;;;;5041271;28;20065;-77
2022/03/21 00:18:13;;;;;;;2.85;1.60;;;6.50;99.90;;;;;;5061838;28;20045;-76
2022/03/21 00:20:40;;;;;;;1.77;1.50;;;6.40;99.90;;;;;;5041732;28;20251;-76
2022/03/21 00:23:06;;;;;;;4.25;0.68;;;6.50;99.90;;;;;;5029564;28;20041;-76
2022/03/21 00:25:32;;;;;;;1.98;0.70;;;6.50;99.90;;;;;;5059233;28;20032;-76
2022/03/21 00:27:58;;;;;;;2.08;1.48;;;6.50;99.90;;;;;;5045465;28;20398;-77
2022/03/21 00:30:24;;;;;;;2.15;1.05;;;6.50;99.90;;;;;;5045536;28;20045;-77
2022/03/21 00:32:50;;;;;;;3.67;0.60;;;6.50;99.90;;;;;;5028354;28;20135;-77
2022/03/21 00:35:16;;;;;;;2.15;1.23;;;6.50;99.90;;;;;;5043810;28;20306;-77
2022/03/21 00:37:43;;;;;;;1.35;0.63;;;6.50;99.90;;;;;;5043572;28;20033;-77
2022/03/21 00:40:11;;;;;;;6.07;0.50;;;6.50;99.90;;;;;;5029515;28;20317;-77
2022/03/21 00:42:38;;;;;;;0.28;0.20;;;6.50;99.90;;;;;;5028098;28;20044;-77
2022/03/21 00:45:13;;;;;;;1.38;0.95;;;6.50;99.90;;;;;;5042623;28;20087;-77
2022/03/21 00:47:39;;;;;;;1.27;0.75;;;6.50;99.90;;;;;;5061246;28;20450;-77
2022/03/21 00:50:07;;;;;;;2.05;0.88;;;6.50;99.90;;;;;;5041036;28;20120;-77
2022/03/21 00:52:44;;;;;;;4.40;1.63;;;6.50;99.90;;;;;;5028743;28;20501;-77
2022/03/21 00:55:11;;;;;;;1.55;0.75;;;6.50;99.90;;;;;;5028372;28;20152;-77
2022/03/21 00:57:40;;;;;;;2.22;0.45;;;6.50;99.90;;;;;;5027824;28;20128;-77
2022/03/21 01:00:12;;;;;;;1.65;0.88;;;6.50;99.90;;;;;;5058283;28;20084;-77
2022/03/21 01:02:38;;;;;;;2.38;0.75;;;6.50;99.90;;;;;;5042689;28;20041;-77
2022/03/21 01:05:05;;;;;;;1.23;0.68;;;6.50;99.90;;;;;;5028133;28;20486;-77
2022/03/21 01:07:31;;;;;;;0.65;0.35;;;6.50;99.90;;;;;;5060397;28;20041;-77
2022/03/21 01:09:57;;;;;;;1.52;0.90;;;6.50;99.90;;;;;;5044010;28;20045;-77
2022/03/21 01:12:23;;;;;;;0.93;0.45;;;6.50;99.90;;;;;;5043782;28;20037;-77
2022/03/21 01:14:49;;;;;;;3.20;0.88;;;6.50;99.90;;;;;;5024559;28;20379;-77
2022/03/21 01:17:15;;;;;;;0.28;0.17;;;6.50;99.90;;;;;;5043589;28;20045;-77
2022/03/21 01:19:41;;;;;;;0.70;0.50;;;6.50;99.90;;;;;;5027478;28;20455;-77
2022/03/21 01:22:06;;;;;;;2.00;0.60;;;6.50;99.90;;;;;;5039670;28;20135;-77
2022/03/21 01:24:35;;;;;;;0.22;0.20;;;6.40;99.90;;;;;;5059735;28;20064;-77
2022/03/21 01:27:02;;;;;;;1.00;0.45;;;6.50;99.90;;;;;;5044069;28;20048;-77
2022/03/21 01:29:27;;;;;;;1.85;1.10;;;6.50;99.90;;;;;;5044519;28;20043;-77
2022/03/21 01:31:53;;;;;;;0.43;0.30;;;6.50;99.90;;;;;;5040509;28;20406;-77
2022/03/21 01:34:18;;;;;;;0.80;0.43;;;6.50;99.90;;;;;;5024749;28;20033;-77
2022/03/21 01:36:44;;;;;;;1.35;0.90;;;6.50;99.90;;;;;;5040824;28;20128;-77
2022/03/21 01:39:09;;;;;;;1.30;0.40;;;6.50;99.90;;;;;;5026567;28;20124;-77
2022/03/21 01:41:35;;;;;;;0.73;0.50;;;6.40;99.90;;;;;;5045378;28;20071;-77
2022/03/21 01:44:07;;;;;;;1.35;0.35;;;6.50;99.90;;;;;;5042737;28;20086;-77
2022/03/21 01:46:33;;;;;;;2.95;0.43;;;6.40;99.90;;;;;;5025934;28;20395;-77
2022/03/21 01:49:00;;;;;;;0.70;0.43;;;6.40;99.90;;;;;;5044450;28;20044;-77
2022/03/21 01:51:26;;;;;;;1.73;0.85;;;6.40;99.90;;;;;;5059416;28;20044;-77
2022/03/21 01:56:40;;;;;;;1.75;0.65;;;6.40;99.90;;;;;;5042599;28;20053;-77
2022/03/21 01:59:07;;;;;;;0.52;0.52;;;6.40;99.90;;;;;;5027149;28;20442;-77
2022/03/21 02:01:32;;;;;;;1.20;0.80;;;6.40;99.90;;;;;;5041160;28;20044;-77
2022/03/21 02:03:59;;;;;;;0.40;0.28;;;6.30;99.90;;;;;;5037026;28;20067;-77
2022/03/21 02:06:28;;;;;;;1.52;0.65;;;6.40;99.90;;;;;;5059700;28;20526;-77
2022/03/21 02:08:58;;;;;;;0.88;0.52;;;6.30;99.90;;;;;;5026218;28;20033;-77
2022/03/21 02:11:28;;;;;;;2.13;1.02;;;6.30;99.90;;;;;;5044413;28;20040;-77
2022/03/21 02:13:56;;;;;;;0.38;0.22;;;6.30;99.90;;;;;;5040474;28;20055;-77
2022/03/21 02:16:23;;;;;;;1.13;0.65;;;6.20;99.90;;;;;;5043764;28;20574;-77
2022/03/21 02:18:49;;;;;;;0.75;0.52;;;6.20;99.90;;;;;;5037074;28;20060;-77
2022/03/21 02:21:36;;;;;;;0.30;0.22;;;6.10;99.90;;;;;;5027261;28;20035;-77
2022/03/21 02:24:07;;;;;;;0.70;0.43;;;6.10;99.90;;;;;;5026449;28;20170;-77
2022/03/21 02:26:35;;;;;;;0.68;0.45;;;6.10;99.90;;;;;;5041121;28;20029;-76
2022/03/21 02:29:02;;;;;;;1.10;0.45;;;6.10;99.90;;;;;;5044728;28;20041;-77
2022/03/21 02:31:31;;;;;;;0.43;0.32;;;6.10;99.90;;;;;;5025653;28;20041;-77
2022/03/21 02:33:57;;;;;;;0.30;0.30;;;6.00;99.90;;;;;;5023963;28;20037;-77
2022/03/21 02:36:26;;;;;;;0.95;0.80;;;6.00;99.90;;;;;;5026441;28;20056;-76
2022/03/21 02:38:54;;;;;;;2.55;0.90;;;6.00;99.90;;;;;;5059887;28;20135;-76
2022/03/21 02:41:19;;;;;;;0.43;0.38;;;6.00;99.90;;;;;;5055583;28;20036;-76
2022/03/21 02:43:53;;;;;;;0.38;0.30;;;5.90;99.90;;;;;;5037320;28;20036;-77
2022/03/21 02:46:19;;;;;;;1.58;1.02;;;5.90;99.90;;;;;;5040965;28;20136;-77
2022/03/21 02:48:46;;;;;;;0.70;0.60;;;5.90;99.90;;;;;;5041277;28;20467;-77
2022/03/21 02:51:13;;;;;;;2.50;0.75;;;5.90;99.90;;;;;;5044968;28;20493;-77
2022/03/21 02:53:40;;;;;;;0.30;0.30;;;5.80;99.90;;;;;;5039671;28;20053;-77
2022/03/21 02:56:05;;;;;;;1.30;0.50;;;5.80;99.90;;;;;;5027378;28;20033;-77
2022/03/21 02:58:31;;;;;;;0.60;0.40;;;5.70;99.90;;;;;;5039740;28;20075;-77
2022/03/21 03:01:12;;;;;;;0.77;0.68;;;5.70;99.90;;;;;;5041060;28;20040;-77
2022/03/21 03:03:38;;;;;;;0.73;0.60;;;5.70;99.90;;;;;;5056854;28;20467;-76
2022/03/21 03:06:04;;;;;;;0.15;0.15;;;5.60;99.90;;;;;;5043388;28;20040;-76
2022/03/21 03:08:31;;;;;;;0.50;0.25;;;5.60;99.90;;;;;;5040906;28;20047;-76
2022/03/21 03:10:56;;;;;;;0.85;0.57;;;5.60;99.90;;;;;;5023841;28;20056;-76
2022/03/21 03:13:22;;;;;;;1.77;1.05;;;5.50;99.90;;;;;;5036417;28;20037;-76
2022/03/21 03:15:48;;;;;;;1.58;0.50;;;5.50;99.90;;;;;;5040292;28;20055;-76
2022/03/21 03:18:14;;;;;;;0.63;0.22;;;5.50;99.90;;;;;;5043936;28;20100;-76
2022/03/21 03:20:50;;;;;;;0.28;0.17;;;5.50;99.90;;;;;;5024458;28;20037;-76
2022/03/21 03:23:18;;;;;;;1.65;0.47;;;5.40;99.90;;;;;;5042217;28;20063;-76
2022/03/21 03:25:44;;;;;;;3.65;1.10;;;5.30;99.90;;;;;;5064709;28;20059;-76
2022/03/21 03:28:11;;;;;;;1.08;0.75;;;5.30;99.90;;;;;;5045923;28;20037;-76
2022/03/21 03:30:37;;;;;;;2.38;0.68;;;5.20;99.90;;;;;;5062913;28;20044;-76
2022/03/21 03:33:03;;;;;;;2.65;0.95;;;5.10;99.90;;;;;;5043821;28;20071;-76
2022/03/21 03:35:29;;;;;;;2.67;1.00;;;5.10;99.90;;;;;;5041142;28;20124;-76
2022/03/21 03:37:54;;;;;;;0.98;0.55;;;5.00;99.90;;;;;;5028376;28;20053;-76
2022/03/21 03:40:21;;;;;;;1.55;0.57;;;4.90;99.90;;;;;;5061733;28;20045;-76
2022/03/21 03:42:47;;;;;;;6.15;0.60;;;4.90;99.90;;;;;;5029251;28;20043;-76
2022/03/21 03:45:13;;;;;;;0.93;0.60;;;4.80;99.90;;;;;;5044189;28;20041;-76
2022/03/21 03:47:40;;;;;;;1.15;1.00;;;4.80;99.90;;;;;;5062674;28;20045;-76
2022/03/21 03:50:06;;;;;;;1.00;0.77;;;4.70;99.90;;;;;;5044478;28;20450;-77
2022/03/21 03:52:32;;;;;;;0.55;0.43;;;4.70;99.90;;;;;;5041968;28;20445;-77
2022/03/21 03:54:58;;;;;;;1.85;0.75;;;4.60;99.90;;;;;;5063745;28;20048;-77
2022/03/21 03:57:23;;;;;;;0.22;0.22;;;4.60;99.90;;;;;;5044626;28;20048;-76
2022/03/21 03:59:49;;;;;;;1.13;0.40;;;4.60;99.90;;;;;;5045929;28;20061;-76
2022/03/21 04:02:14;;;;;;;0.35;0.22;;;4.50;99.90;;;;;;5040476;28;20037;-76
2022/03/21 04:04:40;;;;;;;1.10;0.65;;;4.50;99.90;;;;;;5046479;28;20498;-76
2022/03/21 04:07:06;;;;;;;0.95;0.60;;;4.40;99.90;;;;;;5028338;28;20550;-77
2022/03/21 04:09:31;;;;;;;0.63;0.47;;;4.40;99.90;;;;;;5046121;28;20148;-76
2022/03/21 04:11:57;;;;;;;1.05;0.65;;;4.40;99.90;;;;;;5029053;28;20474;-76
2022/03/21 04:14:23;;;;;;;4.53;0.85;;;4.40;99.90;;;;;;5063242;28;20074;-76
2022/03/21 04:16:48;;;;;;;1.13;0.75;;;4.30;99.90;;;;;;5042425;28;20115;-76
2022/03/21 04:19:14;;;;;;;3.17;1.42;;;4.30;99.90;;;;;;5061584;28;20037;-76
2022/03/21 04:21:40;;;;;;;0.85;0.63;;;4.30;99.90;;;;;;5044200;28;20411;-76
2022/03/21 04:24:07;;;;;;;0.70;0.40;;;4.30;99.90;;;;;;5029605;28;20520;-76
2022/03/21 04:26:33;;;;;;;0.60;0.40;;;4.20;99.90;;;;;;5046615;28;20486;-76
2022/03/21 04:28:59;;;;;;;0.75;0.40;;;4.20;99.90;;;;;;5062991;28;20033;-76
2022/03/21 04:31:25;;;;;;;0.17;0.17;;;4.20;99.90;;;;;;5057905;28;20136;-76
2022/03/21 04:33:50;;;;;;;3.58;1.20;;;4.20;99.90;;;;;;5059877;28;20136;-76
2022/03/21 04:36:16;;;;;;;1.23;0.68;;;4.10;99.90;;;;;;5042315;28;20179;-76
2022/03/21 04:38:41;;;;;;;0.22;0.20;;;4.10;99.90;;;;;;5043725;28;20048;-76
2022/03/21 04:41:08;;;;;;;1.05;0.63;;;4.00;99.90;;;;;;5042946;28;20056;-76
2022/03/21 04:43:33;;;;;;;0.85;0.63;;;3.90;99.90;;;;;;5045188;28;20464;-76
2022/03/21 04:46:00;;;;;;;1.17;0.35;;;3.90;99.90;;;;;;5058882;28;20041;-76
2022/03/21 04:48:25;;;;;;;3.60;0.73;;;3.90;99.90;;;;;;5044876;28;20072;-76
2022/03/21 04:50:51;;;;;;;0.77;0.45;;;3.80;99.90;;;;;;5061948;28;20037;-76
2022/03/21 04:53:17;;;;;;;0.82;0.50;;;3.80;99.90;;;;;;5041877;28;20041;-76
2022/03/21 04:55:42;;;;;;;0.80;0.50;;;3.70;99.90;;;;;;5044975;28;20036;-76
2022/03/21 04:58:09;;;;;;;0.68;0.25;;;3.70;99.90;;;;;;5029548;28;20037;-76
2022/03/21 05:00:36;;;;;;;3.03;1.63;;;3.70;99.90;;;;;;5028228;28;20045;-76
2022/03/21 05:03:07;;;;;;;0.75;0.32;;;3.60;99.90;;;;;;5060077;28;20033;-76
2022/03/21 05:05:36;;;;;;;2.33;0.73;;;3.60;99.90;;;;;;5061177;28;20086;-76
2022/03/21 05:08:02;;;;;;;0.10;0.10;;;3.60;99.90;;;;;;5057634;28;20033;-77
2022/03/21 05:10:29;;;;;;;0.55;0.47;;;3.60;99.90;;;;;;5028777;28;20423;-77
2022/03/21 05:12:55;;;;;;;0.43;0.25;;;3.60;99.90;;;;;;5042680;28;20052;-76
2022/03/21 05:15:21;;;;;;;1.13;0.63;;;3.70;99.90;;;;;;5059523;28;20049;-76
2022/03/21 05:17:47;;;;;;;0.90;0.63;;;3.70;99.90;;;;;;5059496;28;20052;-76
2022/03/21 05:20:17;;;;;;;0.45;0.15;;;3.70;99.90;;;;;;5045042;28;20040;-76
2022/03/21 05:30:57;;;;;;;0.30;0.30;;;3.70;99.90;;;;;;5039768;28;20047;-76
2022/03/21 05:31:07;;;;;;;0.30;0.20;;;3.60;99.90;;;;;;5041045;28;20049;-76
2022/03/21 05:36:18;;;;;;;1.10;0.57;;;3.60;99.90;;;;;;5043020;28;20045;-76
2022/03/21 05:38:44;;;;;;;0.47;0.40;;;3.50;99.90;;;;;;5027525;28;20041;-76
2022/03/21 05:41:10;;;;;;;1.92;0.65;;;3.50;99.90;;;;;;5043619;28;20446;-76
2022/03/21 05:43:36;;;;;;;0.90;0.45;;;3.40;99.90;;;;;;5061073;28;20044;-76
2022/03/21 05:46:03;;;;;;;0.13;0.13;;;3.40;99.90;;;;;;5042413;28;20040;-76
2022/03/21 05:51:15;;;;;;;0.95;0.68;;;3.30;99.90;;;;;;5042581;28;20052;-76
2022/03/21 05:53:41;;;;;;;1.80;0.85;;;3.30;99.90;;;;;;5039993;28;20079;-76
2022/03/21 05:56:07;;;;;;;0.85;0.30;;;3.30;99.90;;;;;;5025813;28;20029;-76
2022/03/21 05:58:33;;;;;;;0.88;0.30;;;3.30;99.90;;;;;;5045147;28;20091;-76
2022/03/21 06:00:58;;;;;;;1.63;0.50;;;3.30;99.90;;;;;;5041966;28;20392;-76
2022/03/21 06:03:24;;;;;;;0.47;0.30;;;3.30;99.90;;;;;;5040165;28;20418;-76
2022/03/21 06:05:51;;;;;;;0.13;0.13;;;3.30;99.90;;;;;;5042835;28;20171;-76
2022/03/21 06:08:17;;;;;;;0.13;0.10;;;3.20;99.90;;;;;;5041929;28;20112;-76
2022/03/21 06:10:42;;;;;;;0.50;0.43;;;3.20;99.90;;;;;;5043570;28;20123;-76
2022/03/21 06:13:08;;;;;;;1.33;0.35;;;3.20;99.90;;;;;;5040965;28;20060;-76
2022/03/21 06:15:38;;;;;;;0.20;0.10;;;3.10;99.90;;;;;;5026689;28;20057;-76
2022/03/21 06:18:10;;;;;;;1.10;0.60;;;3.20;99.90;;;;;;5043377;28;20076;-76
2022/03/21 06:20:36;;;;;;;1.15;0.65;;;3.20;99.90;;;;;;5058374;28;20029;-76
2022/03/21 06:23:02;;;;;;;0.50;0.22;;;3.30;99.90;;;;;;5042638;28;20037;-76
2022/03/21 06:25:28;;;;;;;0.10;0.10;;;3.30;99.90;;;;;;5027656;28;20029;-76
2022/03/21 06:27:54;;;;;;;1.90;1.13;;;3.40;99.90;;;;;;5060364;28;20052;-76
2022/03/21 06:30:19;;;;;;;1.77;0.43;;;3.40;99.90;;;;;;5058070;28;20033;-76
2022/03/21 06:32:45;;;;;;;1.45;0.50;;;3.50;99.90;;;;;;5042709;28;20468;-76
2022/03/21 06:35:11;;;;;;;0.30;0.25;;;3.50;99.90;;;;;;5039787;28;20048;-76
2022/03/21 06:37:38;;;;;;;0.10;0.10;;;3.50;99.90;;;;;;5058383;28;20036;-76
2022/03/21 06:40:05;;;;;;;0.75;0.75;;;3.50;99.90;;;;;;5041170;28;20066;-76
2022/03/21 06:42:31;;;;;;;1.77;1.33;;;3.50;99.90;;;;;;5041155;28;20037;-76
2022/03/21 06:44:56;;;;;;;1.25;0.52;;;3.60;99.90;;;;;;5038829;28;20051;-76
2022/03/21 06:47:22;;;;;;;3.05;0.57;;;3.60;99.90;;;;;;5047071;28;20055;-76
2022/03/21 06:49:48;;;;;;;0.10;0.10;;;3.70;99.90;;;;;;5026327;28;20123;-76
2022/03/21 06:52:16;;;;;;;1.35;0.93;;;3.80;99.90;;;;;;5058087;28;20028;-76
2022/03/21 06:54:42;;;;;;;0.40;0.40;;;3.80;99.90;;;;;;5040757;28;20422;-76
2022/03/21 06:57:09;;;;;;;1.13;0.32;;;3.90;99.90;;;;;;5057644;28;20037;-76
2022/03/21 06:59:35;;;;;;;0.30;0.30;;;3.90;99.90;;;;;;5055612;28;20043;-77
2022/03/21 07:02:01;;;;;;;0.80;0.70;;;3.90;99.90;;;;;;5040375;28;20033;-77
2022/03/21 07:04:26;;;;;;;0.60;0.35;;;4.00;99.90;;;;;;5023394;28;20048;-77
2022/03/21 07:06:53;;;;;;;0.73;0.50;;;4.10;99.90;;;;;;5033005;28;20905;-77
2022/03/21 07:09:19;;;;;;;0.75;0.38;;;4.20;99.90;;;;;;5042458;28;20044;-76
2022/03/21 07:11:45;;;;;;;1.00;0.57;;;4.20;99.90;;;;;;5042168;28;20048;-77
2022/03/21 07:14:11;;;;;;;0.77;0.55;;;4.20;99.90;;;;;;5037401;28;20041;-76
2022/03/21 07:16:37;;;;;;;1.73;0.60;;;4.30;99.90;;;;;;5056975;28;20048;-76
2022/03/21 07:19:03;;;;;;;0.57;0.57;;;4.40;99.90;;;;;;5041180;28;20092;-76
2022/03/21 07:21:28;;;;;;;0.65;0.38;;;4.40;99.90;;;;;;5052437;28;20482;-76
2022/03/21 07:23:54;;;;;;;1.42;1.20;;;4.50;99.90;;;;;;5022449;28;20439;-76
2022/03/21 07:26:19;;;;;;;2.40;0.55;;;4.50;99.90;;;;;;5037535;28;20036;-76
2022/03/21 07:28:45;;;;;;;2.42;1.25;;;4.60;99.90;;;;;;5039135;28;20087;-76
2022/03/21 07:31:11;;;;;;;1.17;0.57;;;4.70;99.90;;;;;;5023118;28;20053;-76
2022/03/21 07:33:41;;;;;;;1.45;0.63;;;4.70;99.90;;;;;;5021398;28;20037;-76
2022/03/21 07:36:08;;;;;;;0.70;0.30;;;4.80;99.90;;;;;;5056107;28;20502;-76
2022/03/21 07:38:35;;;;;;;1.17;0.70;;;4.80;99.90;;;;;;5036934;28;20566;-76
2022/03/21 07:41:01;;;;;;;0.52;0.45;;;4.90;99.90;;;;;;5042124;28;20033;-76
2022/03/21 07:43:27;;;;;;;1.40;0.57;;;4.90;99.90;;;;;;5054386;28;20037;-76
2022/03/21 07:48:51;;;;;;;0.40;0.40;;;5.00;99.90;;;;;;5009940;28;20051;-76
2022/03/21 07:51:17;;;;;;;1.50;0.60;;;5.10;99.90;;;;;;5023651;28;20119;-76
2022/03/21 07:53:43;;;;;;;0.30;0.30;;;5.20;99.90;;;;;;5034587;28;20120;-76
2022/03/21 07:56:09;;;;;;;1.40;0.43;;;5.30;99.90;;;;;;5038321;28;20458;-76
2022/03/21 07:58:35;;;;;;;0.95;0.73;;;5.30;99.90;;;;;;5037467;28;20033;-75
2022/03/21 08:01:02;;;;;;;0.40;0.40;;;5.40;99.90;;;;;;5036920;28;20033;-76
2022/03/21 08:03:28;;;;;;;0.88;0.40;;;5.50;99.90;;;;;;5055155;28;20686;-77
2022/03/21 08:05:54;;;;;;;0.30;0.20;;;5.50;99.90;;;;;;5042010;28;20052;-75
2022/03/21 08:08:22;;;;;;;2.00;0.90;;;5.60;99.90;;;;;;5039489;28;20053;-76
2022/03/21 08:10:48;;;;;;;5.32;1.17;;;5.70;99.90;;;;;;5036061;28;20476;-75
2022/03/21 08:13:16;;;;;;;1.77;1.45;;;5.70;99.90;;;;;;5043148;28;20041;-76
2022/03/21 08:15:44;;;;;;;1.15;0.70;;;5.80;99.90;;;;;;5042452;28;20057;-77
2022/03/21 08:18:11;;;;;;;0.45;0.45;;;5.80;99.90;;;;;;5062075;28;20037;-77
2022/03/21 08:20:39;;;;;;;2.67;1.10;;;5.80;99.90;;;;;;5062854;28;20155;-77
2022/03/21 08:23:11;;;;;;;2.22;1.00;;;5.90;99.90;;;;;;5043782;28;20298;-78
2022/03/21 08:25:38;;;;;;;3.78;1.23;;;6.00;99.90;;;;;;5044194;28;20029;-78
2022/03/21 08:28:05;;;;;;;0.95;0.68;;;6.00;99.90;;;;;;5040467;28;20048;-77
2022/03/21 08:30:33;;;;;;;1.83;0.80;;;6.10;99.90;;;;;;5061505;28;20100;-77
2022/03/21 08:32:59;;;;;;;3.83;0.68;;;6.20;99.90;;;;;;5042190;28;20079;-77
2022/03/21 08:35:24;;;;;;;2.42;1.08;;;6.30;99.90;;;;;;5057429;28;20201;-76
2022/03/21 08:37:50;;;;;;;1.88;0.77;;;6.30;99.90;;;;;;5041725;28;20048;-77
2022/03/21 08:40:16;;;;;;;1.00;0.40;;;6.40;99.90;;;;;;5037585;28;20029;-77
2022/03/21 08:42:42;;;;;;;2.58;0.88;;;6.50;99.90;;;;;;5041454;28;20066;-77
2022/03/21 08:45:09;;;;;;;1.30;0.63;;;6.50;99.90;;;;;;5042777;28;20037;-77
2022/03/21 08:47:35;;;;;;;1.30;0.63;;;6.60;99.90;;;;;;5024681;28;20036;-77
2022/03/21 08:50:01;;;;;;;1.08;0.63;;;6.60;99.90;;;;;;5041910;28;20079;-77
2022/03/21 08:52:28;;;;;;;3.35;1.05;;;6.70;99.90;;;;;;5025440;28;20518;-77
2022/03/21 08:54:54;;;;;;;2.13;0.80;;;6.80;99.90;;;;;;5056021;28;20041;-77
2022/03/21 08:57:20;;;;;;;5.95;1.75;;;6.80;99.90;;;;;;5025741;28;20458;-77
2022/03/21 08:59:47;;;;;;;2.10;1.13;;;6.90;99.90;;;;;;5038375;28;20075;-77
2022/03/21 09:02:13;;;;;;;2.72;1.48;;;6.90;99.90;;;;;;5039736;28;20557;-77
2022/03/21 09:04:39;;;;;;;1.83;1.05;;;7.00;99.90;;;;;;5037987;28;20037;-78
2022/03/21 09:07:08;;;;;;;0.43;0.40;;;7.10;99.90;;;;;;5057499;28;20298;-77
2022/03/21 09:09:33;;;;;;;0.88;0.43;;;7.10;99.90;;;;;;5056863;28;20127;-76
2022/03/21 09:11:59;;;;;;;1.38;0.80;;;7.20;99.90;;;;;;5022540;28;20123;-76
2022/03/21 09:14:25;;;;;;;2.83;1.13;;;7.30;99.90;;;;;;5044275;28;20072;-75
2022/03/21 09:16:52;;;;;;;1.80;1.08;;;7.30;99.90;;;;;;5028048;28;20055;-76
2022/03/21 09:19:19;;;;;;;1.08;0.65;;;7.40;99.90;;;;;;5043853;28;20063;-76
2022/03/21 09:21:45;;;;;;;2.40;0.90;;;7.40;99.90;;;;;;5062012;28;20045;-76
2022/03/21 09:24:11;;;;;;;2.15;1.13;;;7.50;99.90;;;;;;5044694;28;20041;-76
2022/03/21 09:26:37;;;;;;;3.15;1.15;;;7.60;99.90;;;;;;5038045;28;20051;-76
2022/03/21 09:29:03;;;;;;;3.38;1.02;;;7.70;99.90;;;;;;5042530;28;20128;-76
2022/03/21 09:31:29;;;;;;;0.85;0.60;;;7.70;99.90;;;;;;5027102;28;20049;-77
2022/03/21 09:33:56;;;;;;;1.23;0.88;;;7.80;99.90;;;;;;5026002;28;20087;-76
2022/03/21 09:36:21;;;;;;;0.90;0.47;;;7.80;99.90;;;;;;5041269;28;20457;-76
2022/03/21 09:38:47;;;;;;;2.33;0.38;;;7.90;99.90;;;;;;5042190;28;20131;-76
2022/03/21 09:41:13;;;;;;;1.45;0.47;;;7.90;99.90;;;;;;5041582;28;20382;-76
2022/03/21 09:43:40;;;;;;;6.10;1.08;;;7.90;99.90;;;;;;5059634;28;20045;-76
2022/03/21 09:46:08;;;;;;;1.30;0.73;;;8.00;99.90;;;;;;5042473;28;20033;-76
2022/03/21 09:48:34;;;;;;;1.83;1.38;;;8.10;99.90;;;;;;5043504;28;20158;-76
2022/03/21 09:51:03;;;;;;;1.15;0.77;;;8.10;99.90;;;;;;5057940;28;20033;-77
2022/03/21 09:53:29;;;;;;;7.03;2.20;;;8.10;99.90;;;;;;5057808;28;20117;-77
2022/03/21 09:55:55;;;;;;;4.32;0.82;;;8.10;99.90;;;;;;5039110;28;20052;-77
2022/03/21 09:58:22;;;;;;;2.83;0.75;;;8.20;99.90;;;;;;5039173;28;20084;-77
2022/03/21 10:00:51;;;;;;;1.05;0.95;;;8.20;99.90;;;;;;5043609;28;20398;-76
2022/03/21 10:03:17;;;;;;;3.45;1.20;;;8.30;99.90;;;;;;5022314;28;20131;-77
2022/03/21 10:05:45;;;;;;;1.75;1.00;;;8.40;99.90;;;;;;5025435;28;20033;-78
2022/03/21 10:08:15;;;;;;;3.20;1.00;;;8.40;99.90;;;;;;5036950;28;20056;-78
2022/03/21 10:10:51;;;;;;;3.22;1.70;;;8.40;99.90;;;;;;5041666;28;20128;-76
2022/03/21 10:13:18;;;;;;;2.03;0.90;;;8.50;99.90;;;;;;5042214;28;20094;-76
2022/03/21 10:15:44;;;;;;;3.53;1.42;;;8.50;99.90;;;;;;5055195;28;20468;-76
2022/03/21 10:18:11;;;;;;;2.33;0.88;;;8.60;99.90;;;;;;5036868;28;20116;-76
2022/03/21 10:20:38;;;;;;;3.25;1.00;;;8.70;99.90;;;;;;5051758;28;20083;-76
2022/03/21 10:23:23;;;;;;;2.47;1.02;;;8.80;99.90;;;;;;5051718;28;20485;-75
2022/03/21 10:25:50;;;;;;;3.83;1.05;;;8.90;99.90;;;;;;5043888;28;20197;-75
2022/03/21 10:28:39;;;;;;;3.97;1.45;;;8.90;99.90;;;;;;5038898;28;20498;-76
2022/03/21 10:31:05;;;;;;;3.10;1.00;;;8.90;99.90;;;;;;5059541;28;20048;-76
2022/03/21 10:33:31;;;;;;;2.78;1.45;;;9.00;99.90;;;;;;5037145;28;20083;-76
2022/03/21 10:36:05;;;;;;;2.83;1.42;;;9.00;99.90;;;;;;5056389;28;20037;-76
2022/03/21 10:38:33;;;;;;;1.23;0.77;;;8.90;99.90;;;;;;5054892;28;20041;-76
2022/03/21 10:41:09;;;;;;;3.50;1.77;;;9.00;99.90;;;;;;5044267;28;20495;-77
2022/03/21 10:43:35;;;;;;;3.35;1.75;;;9.00;99.90;;;;;;5033164;28;20041;-77
2022/03/21 10:46:02;;;;;;;1.92;1.25;;;9.20;99.90;;;;;;5023842;28;20037;-77
2022/03/21 10:48:32;;;;;;;3.15;1.50;;;9.10;99.90;;;;;;5051877;28;20319;-77
2022/03/21 10:51:03;;;;;;;1.65;0.55;;;9.20;99.90;;;;;;5038609;28;20036;-77
2022/03/21 10:53:32;;;;;;;6.82;1.55;;;9.20;99.90;;;;;;5023143;28;20111;-76
2022/03/21 10:56:04;;;;;;;5.30;1.60;;;9.20;99.90;;;;;;5024654;28;20040;-77
2022/03/21 10:58:38;;;;;;;2.20;1.27;;;9.30;99.90;;;;;;5032601;28;20116;-76
2022/03/21 11:01:15;;;;;;;6.28;1.58;;;9.30;99.90;;;;;;5022087;28;20044;-77
2022/03/21 11:03:43;;;;;;;4.00;2.10;;;9.30;99.90;;;;;;5036548;28;20033;-77
2022/03/21 11:06:10;;;;;;;2.20;1.35;;;9.40;99.90;;;;;;5058124;28;20048;-77
2022/03/21 11:08:36;;;;;;;1.60;0.85;;;9.40;99.90;;;;;;5038301;28;20037;-76
2022/03/21 11:11:03;;;;;;;2.53;1.08;;;9.40;99.90;;;;;;5041865;28;20041;-76
2022/03/21 11:13:30;;;;;;;1.38;0.75;;;9.50;99.90;;;;;;5055126;28;20075;-76
2022/03/21 11:15:56;;;;;;;3.30;1.95;;;9.60;99.90;;;;;;5039125;28;20091;-76
2022/03/21 11:18:25;;;;;;;2.53;1.45;;;9.70;99.90;;;;;;5055602;28;20353;-76
2022/03/21 11:20:51;;;;;;;1.58;0.70;;;9.70;99.90;;;;;;5040326;28;20399;-76
2022/03/21 11:23:18;;;;;;;4.20;1.48;;;9.80;99.90;;;;;;5037264;28;20025;-76
2022/03/21 11:25:57;;;;;;;2.15;0.90;;;9.90;99.90;;;;;;5033470;28;20462;-76
2022/03/21 11:28:40;;;;;;;5.00;1.67;;;10.00;99.90;;;;;;5038285;28;20044;-76
2022/03/21 11:31:19;;;;;;;1.48;1.00;;;10.20;99.90;;;;;;5036787;28;20047;-76
2022/03/21 11:34:20;;;;;;;3.17;1.63;;;10.30;99.90;;;;;;5055680;28;20142;-76
2022/03/21 11:36:54;;;;;;;2.92;1.38;;;10.40;99.70;;;;;;5041216;28;20068;-77
2022/03/21 11:39:20;;;;;;;2.00;1.13;;;10.40;98.80;;;;;;5027472;28;20397;-76
2022/03/21 11:42:01;;;;;;;5.47;1.38;;;10.40;99.60;;;;;;5041857;28;20041;-76
2022/03/21 11:44:27;;;;;;;2.50;1.33;;;10.30;96.80;;;;;;5041650;28;20205;-76
2022/03/21 11:46:53;;;;;;;2.17;0.93;;;10.30;99.00;;;;;;5043337;28;20120;-77
2022/03/21 11:49:18;;;;;;;5.43;1.75;;;10.30;99.30;;;;;;5029009;28;20041;-77
2022/03/21 11:51:53;;;;;;;5.38;1.73;;;10.30;99.10;;;;;;5031909;28;20580;-77
2022/03/21 11:54:31;;;;;;;5.03;1.38;;;10.30;99.90;;;;;;5028854;28;20122;-77
2022/03/21 11:57:07;;;;;;;4.18;1.40;;;10.50;99.60;;;;;;5044113;28;20506;-77
2022/03/21 11:59:35;;;;;;;3.72;1.77;;;10.60;99.90;;;;;;5044855;28;20435;-77
2022/03/21 12:02:10;;;;;;;2.40;1.00;;;10.70;99.60;;;;;;5028701;28;20123;-76
2022/03/21 12:04:37;;;;;;;2.60;0.93;;;10.70;99.30;;;;;;5060476;28;20048;-78
2022/03/21 12:07:12;;;;;;;3.90;1.65;;;10.70;97.90;;;;;;5042092;28;20025;-77
2022/03/21 12:09:48;;;;;;;4.53;1.33;;;10.70;96.80;;;;;;5057620;28;20045;-77
2022/03/21 12:12:14;;;;;;;;;;;10.60;97.20;;;;;;5044730;28;22521;-76
2022/03/21 12:15:00;;;;;;;;;;;10.50;95.70;;;;;;5048302;28;20357;-77
2022/03/21 12:17:27;;;;;;;3.95;1.58;;;10.60;96.40;;;;;;5060458;28;19924;-76
2022/03/21 12:19:57;;;;;;;3.25;1.00;;;10.70;99.60;;;;;;5046308;28;20036;-76
2022/03/21 12:22:29;;;;;;;5.82;2.00;;;10.90;98.90;;;;;;5027748;28;20041;-76
2022/03/21 12:25:39;;;;;;;1.55;1.08;;;11.10;97.50;;;;;;5023444;28;20052;-76
2022/03/21 12:28:19;;;;;;;2.75;1.15;;;11.10;96.50;;;;;;5024630;28;20081;-77
2022/03/21 12:30:48;;;;;;;3.03;1.13;;;11.10;95.50;;;;;;5042686;28;20056;-77
2022/03/21 12:33:14;;;;;;;6.18;2.33;;;11.10;96.80;;;;;;5022775;28;20037;-77
2022/03/21 12:35:45;;;;;;;4.28;1.92;;;11.10;97.50;;;;;;5039322;28;20099;-77
2022/03/21 12:38:22;;;;;;;6.95;2.05;;;11.20;97.50;;;;;;5025447;28;20048;-77
2022/03/21 12:40:50;;;;;;;3.33;1.35;;;11.20;96.30;;;;;;5040739;28;20070;-76
2022/03/21 12:43:29;;;;;;;5.68;1.73;;;11.20;97.20;;;;;;5020488;28;20037;-77
2022/03/21 12:46:12;;;;;;;2.75;0.90;;;11.20;96.70;;;;;;5058811;28;20128;-77
2022/03/21 12:48:46;;;;;;;2.17;1.05;;;11.20;95.20;;;;;;5057625;28;20082;-77
2022/03/21 12:51:15;;;;;;;7.85;2.17;;;11.10;95.50;;;;;;5040056;28;20040;-77
2022/03/21 12:53:45;;;;;;;3.47;1.90;;;11.20;96.80;;;;;;5023944;28;20036;-76
2022/03/21 12:56:19;;;;;;;2.38;1.05;;;11.20;97.00;;;;;;5039778;28;20453;-76
2022/03/21 12:58:47;;;;;;;3.20;1.58;;;11.30;96.40;;;;;;5027612;28;20076;-76
2022/03/21 13:01:17;;;;;;;5.50;1.83;;;11.30;95.80;;;;;;5042324;28;20056;-76
2022/03/21 13:03:44;;;;;;;8.73;1.95;;;11.30;97.00;;;;;;5027967;28;20033;-76
2022/03/21 13:11:46;;;;;;;5.00;2.00;;;11.60;96.00;;;;;;5042169;28;20083;-76
2022/03/21 13:14:14;;;;;;;4.20;1.13;;;11.70;95.50;;;;;;5046302;28;20047;-76
2022/03/21 13:16:51;;;;;;;2.40;1.30;;;11.70;95.20;;;;;;5043505;28;20057;-76
2022/03/21 13:19:22;;;;;;;2.78;1.17;;;11.70;94.70;;;;;;5046665;28;20049;-76
2022/03/21 13:21:57;;;;;;;6.90;2.08;;;11.60;95.10;;;;;;5057410;28;20029;-76